Flight Track Log - Related Links

Times and Time Zones

All times are in EST time to prevent confusion due to time zone crossing. See the N247PS flight status page for this flight to view local times or setup timezone preferences in your user account.

Time Position Orientation Groundspeed Altitude Reporting Facility
EST Latitude Longitude Course Direction KTS MPH feet Rate Location/Type
Thu 05:10:27 PM 38.9611 -75.4075 190° South 355 409 40,000  Level Washington Center
Thu 05:11:27 PM 38.8547 -75.4317 190° South 376 433 40,000  Level Washington Center
Thu 05:12:28 PM 38.7464 -75.4478 187° South 390 449 40,000  Level Washington Center
Thu 05:13:26 PM 38.6381 -75.4642 187° South 395 455 40,000  Level Washington Center
Thu 05:14:27 PM 38.5297 -75.4828 188° South 395 455 40,000  Level Washington Center
Thu 05:15:28 PM 38.4192 -75.5042 189° South 400 460 40,000  Level Washington Center
Thu 05:16:28 PM 38.3150 -75.5361 194° South 400 460 40,000  Level Washington Center
Thu 05:17:28 PM 38.2211 -75.5969 207° Southwest 380 437 40,000  Level Washington Center
Thu 05:18:26 PM 38.1314 -75.6603 209° Southwest 380 437 40,000  Level Washington Center
Thu 05:19:27 PM 38.0375 -75.7367 213° Southwest 372 428 40,000  Level Washington Center
Thu 05:20:27 PM 37.9497 -75.8025 211° Southwest 372 428 40,000  Level Washington Center
Thu 05:21:28 PM 37.8664 -75.8522 205° Southwest 372 428 40,000  Level Washington Center
Thu 05:22:28 PM 37.7806 -75.9203 212° Southwest 372 428 40,000  Level Washington Center
Thu 05:23:26 PM 37.6969 -76.0144 222° Southwest 366 421 40,000  Level Washington Center
Thu 05:24:26 PM 37.6217 -76.0925 219° Southwest 366 421 40,000  Level Washington Center
Thu 05:25:27 PM 37.5483 -76.1603 216° Southwest 366 421 40,000  Level Washington Center
Thu 05:26:28 PM 37.4686 -76.2408 219° Southwest 371 427 40,000  Level Washington Center
Thu 05:27:27 PM 37.3889 -76.3158 217° Southwest 371 427 40,000  Level Washington Center
Thu 05:28:28 PM 37.3111 -76.3961 219° Southwest 371 427 40,000  Level Washington Center
Thu 05:29:27 PM 37.2333 -76.4761 219° Southwest 371 427 40,000  Level Washington Center
Thu 05:30:27 PM 37.1556 -76.5561 219° Southwest 371 427 40,000  Level Washington Center
Thu 05:31:28 PM 37.0758 -76.6358 219° Southwest 371 427 40,000  Level Washington Center
Thu 05:32:26 PM 36.9978 -76.7128 218° Southwest 371 427 40,000  Level Washington Center
Thu 05:33:26 PM 36.9158 -76.7922 218° Southwest 371 427 40,000  Level Washington Center
Thu 05:34:27 PM 36.8397 -76.8714 220° Southwest 371 427 40,000  Level Washington Center
Thu 05:35:28 PM 36.7617 -76.9478 218° Southwest 371 427 40,000  Level Washington Center
Thu 05:36:28 PM 36.6794 -77.0267 218° Southwest 371 427 40,000  Level Washington Center
Thu 05:37:26 PM 36.6014 -77.1056 219° Southwest 371 427 40,000  Level Washington Center
Thu 05:38:26 PM 36.5231 -77.1814 218° Southwest 371 427 40,000  Level Washington Center
Thu 05:39:27 PM 36.4450 -77.2600 219° Southwest 371 427 40,000  Level Washington Center
Thu 05:40:28 PM 36.3644 -77.3383 218° Southwest 371 427 40,000  Level Washington Center
Thu 05:41:26 PM 36.2861 -77.4136 218° Southwest 371 427 40,000  Level Washington Center
Thu 05:42:27 PM 36.2056 -77.4942 219° Southwest 371 427 40,000  Level Washington Center
Thu 05:43:28 PM 36.1250 -77.5719 218° Southwest 366 421 40,000  Level Washington Center
Thu 05:44:28 PM 36.0444 -77.6497 218° Southwest 366 421 40,000  Level Washington Center
Thu 05:45:26 PM 35.9639 -77.7272 218° Southwest 371 427 40,000  Level Washington Center
Thu 05:46:28 PM 35.8811 -77.8069 218° Southwest 371 427 40,000  Level Washington Center
Thu 05:47:28 PM 35.8003 -77.8817 217° Southwest 371 427 40,000  Level Washington Center
Thu 05:48:26 PM 35.7175 -77.9611 218° Southwest 376 433 40,000  Level Washington Center
Thu 05:49:26 PM 35.6344 -78.0403 218° Southwest 376 433 40,000  Level Washington Center
Thu 05:50:27 PM 35.5514 -78.1169 217° Southwest 376 433 40,000  Level Washington Center
Thu 05:51:27 PM 35.4792 -78.1861 218° Southwest 376 433 40,000  Level Washington Center
Thu 05:52:28 PM 35.3939 -78.2647 217° Southwest 376 433 40,000  Level Washington Center
Thu 05:53:28 PM 35.3086 -78.3408 216° Southwest 376 433 40,000  Level Washington Center
Thu 05:54:26 PM 35.2275 -78.4219 219° Southwest 376 433 40,000  Level Washington Center
Thu 05:55:27 PM 35.1464 -78.5006 218° Southwest 376 433 40,000  Level Washington Center
Thu 05:57:29 PM 34.9631 -78.6703 217° Southwest 390 449 40,000  Level Jacksonville Center
Thu 05:58:30 PM 34.8781 -78.7503 218° Southwest 390 449 40,000  Level Jacksonville Center
Thu 05:59:30 PM 34.7931 -78.8278 217° Southwest 390 449 40,000  Level Jacksonville Center
Thu 06:00:30 PM 34.7081 -78.9050 217° Southwest 390 449 40,000  Level Jacksonville Center
Thu 06:01:30 PM 34.6331 -78.9739 217° Southwest 390 449 40,000  Level Jacksonville Center
Thu 06:02:30 PM 34.5478 -79.0536 218° Southwest 385 443 40,000  Level Jacksonville Center
Thu 06:03:30 PM 34.4547 -79.1458 219° Southwest 390 449 40,000 -50 Level Jacksonville Center
Thu 06:04:30 PM 34.3694 -79.2250 217° Southwest 390 449 39,900 -550 Descending Jacksonville Center
Thu 06:05:30 PM 34.2839 -79.3039 217° Southwest 390 449 38,900 -950 Descending Jacksonville Center
Thu 06:06:30 PM 34.1986 -79.3803 217° Southwest 390 449 38,000 -750 Descending Jacksonville Center
Thu 06:07:30 PM 34.1253 -79.4433 215° Southwest 384 442 37,400 -900 Descending Jacksonville Center
Thu 06:08:30 PM 34.0375 -79.5194 216° Southwest 379 436 36,200 -700 Descending Jacksonville Center
Thu 06:09:30 PM 33.9500 -79.6006 218° Southwest 384 442 36,000 -250 Descending Jacksonville Center
Thu 06:10:30 PM 33.8642 -79.6761 216° Southwest 389 448 35,700 -800 Descending Jacksonville Center
Thu 06:11:30 PM 33.7744 -79.7594 218° Southwest 402 463 34,400 -1,250 Descending Jacksonville Center
Thu 06:12:30 PM 33.6828 -79.8425 217° Southwest 408 470 33,200 -1,200 Descending Jacksonville Center
Thu 06:13:30 PM 33.5886 -79.9256 216° Southwest 413 475 32,000 -1,200 Descending Jacksonville Center
Thu 06:14:30 PM 33.4989 -80.0083 218° Southwest 413 475 30,800 -1,200 Descending Jacksonville Center
Thu 06:15:30 PM 33.4047 -80.0908 216° Southwest 419 482 29,600 -1,450 Descending Jacksonville Center
Thu 06:16:30 PM 33.3125 -80.1733 217° Southwest 419 482 27,900 -1,900 Descending Jacksonville Center
Thu 06:17:30 PM 33.2203 -80.2581 218° Southwest 424 488 25,800 -2,250 Descending Jacksonville Center
Thu 06:18:30 PM 33.1178 -80.3431 215° Southwest 418 481 23,400 -2,250 Descending Jacksonville Center
Thu 06:19:30 PM 33.0317 -80.4222 218° Southwest 412 474 21,300 -2,050 Descending Jacksonville Center
Thu 06:20:30 PM 32.9475 -80.4939 216° Southwest 399 459 19,300 -2,000 Descending Jacksonville Center
Thu 06:21:30 PM 32.8653 -80.5628 215° Southwest 383 441 17,300 -2,000 Descending Jacksonville Center
Thu 06:22:30 PM 32.7811 -80.6367 216° Southwest 383 441 15,300 -2,000 Descending Jacksonville Center
Thu 06:23:30 PM 32.6967 -80.7103 216° Southwest 383 441 13,300 -1,950 Descending Jacksonville Center
Thu 06:24:30 PM 32.6186 -80.7789 217° Southwest 360 414 11,400 -1,200 Descending Jacksonville Center
Thu 06:25:30 PM 32.5403 -80.8422 214° Southwest 355 409 10,900 -650 Descending Jacksonville Center
Thu 06:26:30 PM 32.4744 -80.8906 212° Southwest 304 350 10,100 -900 Descending Jacksonville Center
Thu 06:27:30 PM 32.4144 -80.9311 210° Southwest 286 329 9,100 -1,200 Descending Jacksonville Center
Thu 06:28:30 PM 32.3400 -80.9772 208° Southwest 278 320 7,700 -1,300 Descending Jacksonville Center
Thu 06:29:30 PM 32.2697 -81.0228 209° Southwest 278 320 6,500 -1,150 Descending Jacksonville Center
Thu 06:30:30 PM 32.2075 -81.0633 209° Southwest 273 314 5,400 -900 Descending Jacksonville Center
Thu 06:31:30 PM 32.1475 -81.0917 202° Southwest 257 296 4,700 -700 Descending Jacksonville Center
Thu 06:32:30 PM 32.0783 -81.0781 171° South 243 280 4,000 -350 Descending Jacksonville Center
Thu 06:33:30 PM 32.0219 -81.0769 179° South 204 235 4,000  Level Jacksonville Center
Thu 06:35:00 PM 32.1167 -81.2000 270° West  Level FlightAware Approximate
Thu 06:42:00 PM 32.1276 -81.2021 270° West  Level Estimated
Thu 06:43:00 PM 32.1276 -81.2021 270° West  Level Estimated
Thu 06:44:00 PM 32.1276 -81.2021 270° West  Level Estimated
Thu 06:45:00 PM 32.1276 -81.2021 270° West  Level Estimated
Thu 06:46:00 PM 32.1276 -81.2021 270° West  Level Estimated
Thu 06:47:00 PM 32.1276 -81.2021 270° West  Level Estimated
Thu 06:48:00 PM 32.1276 -81.2021 270° West  Level Estimated
Thu 06:49:00 PM 32.1276 -81.2021 270° West  Level Estimated
Thu 06:50:00 PM 32.1276 -81.2021 270° West  Level Estimated

Login

Don't have an account? Register now (free) for customized features, flight alerts, and more!